Saint Joseph, MO

9:36 AM CDT on August 25, 2019 (GMT -0500)
Brookdale | | Change Station
Active Advisory: Flood Warning

Elev 965 ft 39.77 °N, 94.82 °W | Updated 7 seconds ago

Rain
Rain
64.9 °F
Feels Like 64.9 °F
N
2
Wind Variable Wind from East
Gusts 0.2 mph

Today
High -- | Low -- °F
--% Chance of Precip.
Yesterday
High -- | Low -- °F
Precip. -- in
Pressure 29.92 in
Visibility 3.0 miles
Clouds Few 1700 ft
Mostly Cloudy 10000 ft
Overcast 11000 ft
Dew Point 62 °F
Humidity 92%
Rainfall 0.20 in
Snow Depth Not available.
6:40 AM 8:01 PM
Waning Crescent, 30% visible
SPECI KSTJ 251427Z 10005KT 3SM TSRA BR FEW017 BKN100 OVC110 19/17 A2992 RMK AO2 LTG DSNT SE TSB21 P0010 T01890172
Pressure 29.92 in
Visibility 3.0 miles
Clouds Few 1700 ft
Mostly Cloudy 10000 ft
Overcast 11000 ft
Dew Point 62 °F
Humidity 92%
Rainfall 0.20 in
Snow Depth Not available.
6:40 AM 8:01 PM
Waning Crescent, 30% visible
SPECI KSTJ 251427Z 10005KT 3SM TSRA BR FEW017 BKN100 OVC110 19/17 A2992 RMK AO2 LTG DSNT SE TSB21 P0010 T01890172

Get Your Daily Forecast Email!

Thanks for signing up!

Be on the lookout for a verification email in your inbox.

You'll start receiving severe weather alerts in your inbox..

×

10-Day Weather Forecast

Almanac

Astronomy

Aug. 25, 2019 Rise Set
Actual Time
Civil Twilight
Nautical Twilight
Astronomical Twilight
Moon
Length of Visible Light
Length of Day
Tomorrow will be .
, % of the Moon is Illuminated

Today's Extremes

State Highs State Lows

Community

WunderPhotos

Category 6

Welcome to Category 6. This is the collective home for Weather Underground's featured writeups by Dr. Jeff Masters (right), Bob Henson (left), Chris Burt, and other regular contributors.

Nearby

Air Quality

  Air Quality AQ Index Pollutant
Not available.

Snow Depth

Station Depth Elevation

Earthquake Activity

City Distance Mag. Time & Date
Minimum magnitude displayed is 2.5.

Coastal Water Temperatures

Place Temperature

Stations

Nearby Weather Stations

Station Location Temp. Windchill Dew Point Humidity Wind Precip. Elev Updated Type
                   

Watches & Warnings

Flood Warning
Issued: 2:31 PM CDT Aug. 19, 2019 – National Weather Service

The Flood Warning continues for
the Missouri River at St Joseph.
* Until Wednesday August 28.
* At 1:30 PM Monday the stage was 18.8 feet.
* Flood stage is 17.0 feet.
* Minor flooding is occurring and minor flooding is forecast.
* Forecast... the river will continue to fall to below flood stage by
early Tuesday morning.
* At 17.0 feet... lowland flooding upstream and downstream from St.
Joseph occurs.

                       Latest
location fs stage day/time forecast

Missouri River
St Joseph 17 18.8 Mon 01 PM 18.5 this evening


lat... Lon 3991 9501 3990 9489 3975 9483 3964 9488 3970 9505